Terminal Aerodrome Forecast
Issued by NWS Jackson, KY

Home | Current Version | Previous Version | Text Only | Print | Product List | Glossary On
Versions: 1 2 3 4 5 6 7 8 9 10 11 12
000
FTUS43 KJKL 131736
TAFLOZ
TAF
KLOZ 131736Z 1318/1418 36009KT P6SM OVC025
     FM140000 35007KT P6SM BKN035
     FM140400 VRB05KT P6SM SCT130=

USA.gov is the U.S. government's official web portal to all federal, state and local government web resources and services.